Time;durP1;ratioP1;P1;durP2;ratioP2;P2;SDS_P1;SDS_P2;PMS_P1;PMS_P2;Temp;Humidity;BMP_temperature;BMP_pressure;BME280_temperature;BME280_humidity;BME280_pressure;Samples;Min_cycle;Max_cycle;Signal;HPM_P1;HPM_P2
2022/12/17 13:06:52;;;;;;;35.93;30.60;;;;;;;;;;5075216;28;20235;-84
2022/12/17 13:09:33;;;;;;;43.87;37.23;;;;;;;;;;5092516;28;20275;-85
2022/12/17 13:12:20;;;;;;;47.80;42.57;;;;;;;;;;5076158;28;20201;-84
2022/12/17 13:14:51;;;;;;;50.30;44.90;;;;;;;;;;5075308;28;20299;-84
2022/12/17 13:17:27;;;;;;;53.87;47.33;;;;;;;;;;5075766;28;20214;-85
2022/12/17 13:20:00;;;;;;;50.97;44.07;;;;;;;;;;5063374;28;20233;-85
2022/12/17 13:22:32;;;;;;;46.23;35.73;;;;;;;;;;5076017;28;20198;-85
2022/12/17 13:25:15;;;;;;;50.83;41.83;;;;;;;;;;5076619;28;20291;-85
2022/12/17 13:27:44;;;;;;;50.40;44.33;;;;;;;;;;5075474;28;20236;-85
2022/12/17 13:30:20;;;;;;;48.50;41.67;;;;;;;;;;5074551;28;20197;-85
2022/12/17 13:32:51;;;;;;;50.77;45.33;;;;;;;;;;5068390;28;20193;-85
2022/12/17 13:35:22;;;;;;;56.77;49.67;;;;;;;;;;5075674;28;20291;-85
2022/12/17 13:37:56;;;;;;;59.33;53.47;;;;;;;;;;5074980;28;20218;-85
2022/12/17 13:40:32;;;;;;;31.47;21.17;;;;;;;;;;5069594;28;20193;-85
2022/12/17 13:43:00;;;;;;;53.00;47.27;;;;;;;;;;5074230;28;20272;-85
2022/12/17 13:45:29;;;;;;;59.20;47.37;;;;;;;;;;5080281;28;20209;-85
2022/12/17 13:47:58;;;;;;;57.80;51.87;;;;;;;;;;5079019;28;20189;-85
2022/12/17 13:50:28;;;;;;;61.40;55.40;;;;;;;;;;5097348;28;20208;-84
2022/12/17 13:53:13;;;;;;;59.20;53.00;;;;;;;;;;5079728;28;20284;-85
2022/12/17 13:55:41;;;;;;;51.90;44.00;;;;;;;;;;5079189;28;20208;-85
2022/12/17 13:58:21;;;;;;;60.33;53.77;;;;;;;;;;5080532;28;20216;-85
2022/12/17 14:00:49;;;;;;;48.33;41.27;;;;;;;;;;5077393;28;20204;-85
2022/12/17 14:03:22;;;;;;;54.20;44.63;;;;;;;;;;5068431;28;20208;-85
2022/12/17 14:06:12;;;;;;;55.43;46.93;;;;;;;;;;5078893;28;20225;-85
2022/12/17 14:08:42;;;;;;;60.27;53.87;;;;;;;;;;5078016;28;20247;-85
2022/12/17 14:13:58;;;;;;;66.67;48.63;;;;;;;;;;5067234;28;20242;-84
2022/12/17 14:16:26;;;;;;;58.77;49.70;;;;;;;;;;5079774;28;20225;-85
2022/12/17 14:18:56;;;;;;;62.03;47.70;;;;;;;;;;5074207;28;20299;-84
2022/12/17 14:21:25;;;;;;;65.77;56.53;;;;;;;;;;5071114;28;20207;-85
2022/12/17 14:23:56;;;;;;;69.80;61.70;;;;;;;;;;5066632;28;20204;-85
2022/12/17 14:26:25;;;;;;;71.10;63.17;;;;;;;;;;5077838;28;20213;-85
2022/12/17 14:28:54;;;;;;;71.47;59.47;;;;;;;;;;5065994;28;20205;-84
2022/12/17 14:31:24;;;;;;;69.53;58.20;;;;;;;;;;5065754;28;20265;-84
2022/12/17 14:34:06;;;;;;;70.43;59.13;;;;;;;;;;5076841;28;20220;-84
2022/12/17 14:36:34;;;;;;;74.43;58.43;;;;;;;;;;5060864;28;20202;-85
2022/12/17 14:39:09;;;;;;;67.00;53.73;;;;;;;;;;5097092;28;20255;-85
2022/12/17 14:44:28;;;;;;;75.43;63.57;;;;;;;;;;5040155;28;20210;-84
2022/12/17 14:47:07;;;;;;;73.13;60.33;;;;;;;;;;5065883;28;20197;-84
2022/12/17 14:49:38;;;;;;;76.13;67.13;;;;;;;;;;5097438;28;20193;-85
2022/12/17 14:52:12;;;;;;;63.77;42.93;;;;;;;;;;5076597;28;20222;-84
2022/12/17 14:54:47;;;;;;;69.23;60.57;;;;;;;;;;5078696;28;20192;-85
2022/12/17 14:57:20;;;;;;;78.87;61.73;;;;;;;;;;5095731;28;20245;-84
2022/12/17 14:59:49;;;;;;;61.53;49.93;;;;;;;;;;5078658;28;20193;-84
2022/12/17 15:02:22;;;;;;;69.13;56.07;;;;;;;;;;5064627;28;20206;-84
2022/12/17 15:04:51;;;;;;;80.83;68.40;;;;;;;;;;5071051;28;20228;-85
2022/12/17 15:07:23;;;;;;;77.07;59.97;;;;;;;;;;5078226;28;20211;-84
2022/12/17 15:09:53;;;;;;;75.43;56.87;;;;;;;;;;5077921;28;20201;-84
2022/12/17 15:12:22;;;;;;;77.67;68.13;;;;;;;;;;5077690;28;20209;-85
2022/12/17 15:14:50;;;;;;;80.87;61.20;;;;;;;;;;5078601;28;20243;-85
2022/12/17 15:17:19;;;;;;;51.47;35.77;;;;;;;;;;5077367;28;20220;-84
2022/12/17 15:19:47;;;;;;;62.27;46.43;;;;;;;;;;5067952;28;20261;-84
2022/12/17 15:22:23;;;;;;;81.90;73.00;;;;;;;;;;5077622;28;20209;-84
2022/12/17 15:24:53;;;;;;;88.73;69.03;;;;;;;;;;5077303;28;20201;-85
2022/12/17 15:27:21;;;;;;;85.80;64.60;;;;;;;;;;5078124;28;20200;-84
2022/12/17 15:29:50;;;;;;;82.93;60.50;;;;;;;;;;5065008;28;20209;-84
2022/12/17 15:32:19;;;;;;;77.10;52.07;;;;;;;;;;5078144;28;20223;-84
2022/12/17 15:34:47;;;;;;;95.67;76.30;;;;;;;;;;5077507;28;20205;-84
2022/12/17 15:37:16;;;;;;;83.23;55.73;;;;;;;;;;5077772;28;20296;-84
2022/12/17 15:39:49;;;;;;;83.60;59.17;;;;;;;;;;5064326;28;20206;-84
2022/12/17 15:45:06;;;;;;;98.47;80.37;;;;;;;;;;5077240;28;20201;-84
2022/12/17 15:47:35;;;;;;;96.80;70.70;;;;;;;;;;5064644;28;20223;-84
2022/12/17 15:50:03;;;;;;;94.60;70.03;;;;;;;;;;5077804;28;20209;-84
2022/12/17 15:52:32;;;;;;;94.53;62.97;;;;;;;;;;5076190;28;20236;-84
2022/12/17 15:55:00;;;;;;;82.80;54.30;;;;;;;;;;5076869;28;20262;-84
2022/12/17 15:57:30;;;;;;;99.43;59.87;;;;;;;;;;5076323;28;20235;-84
2022/12/17 15:59:58;;;;;;;89.43;61.80;;;;;;;;;;5061499;28;20209;-84
2022/12/17 16:02:27;;;;;;;82.97;56.63;;;;;;;;;;5089702;28;20208;-85
2022/12/17 16:04:55;;;;;;;101.07;69.80;;;;;;;;;;5069878;28;20228;-87
2022/12/17 16:07:24;;;;;;;109.47;74.43;;;;;;;;;;5089232;28;20218;-86
2022/12/17 16:09:52;;;;;;;104.70;77.03;;;;;;;;;;5094235;28;20284;-86
2022/12/17 16:12:25;;;;;;;106.83;72.67;;;;;;;;;;5076092;28;20232;-86
2022/12/17 16:14:55;;;;;;;107.20;78.37;;;;;;;;;;5078664;28;20222;-86
2022/12/17 16:17:24;;;;;;;105.87;70.20;;;;;;;;;;5072600;28;20279;-86
2022/12/17 16:19:52;;;;;;;114.63;79.67;;;;;;;;;;5068387;28;20483;-87
2022/12/17 16:22:21;;;;;;;86.17;57.43;;;;;;;;;;5076141;28;20258;-86
2022/12/17 16:24:51;;;;;;;107.87;68.43;;;;;;;;;;5064452;28;20224;-86
2022/12/17 16:27:19;;;;;;;91.27;62.07;;;;;;;;;;5069821;28;20205;-86
2022/12/17 16:29:48;;;;;;;89.07;59.70;;;;;;;;;;5069475;28;20193;-86
2022/12/17 16:32:18;;;;;;;92.40;55.47;;;;;;;;;;5075316;28;20193;-86
2022/12/17 16:34:46;;;;;;;110.67;71.23;;;;;;;;;;5063213;28;20262;-86
2022/12/17 16:37:15;;;;;;;91.40;61.97;;;;;;;;;;5075492;28;20313;-87
2022/12/17 16:39:43;;;;;;;105.03;64.70;;;;;;;;;;5076634;28;20247;-86
2022/12/17 16:42:11;;;;;;;113.87;75.40;;;;;;;;;;5076087;28;20226;-86
2022/12/17 16:44:40;;;;;;;119.57;80.77;;;;;;;;;;5075432;28;20258;-86
2022/12/17 16:47:08;;;;;;;128.80;75.93;;;;;;;;;;5067499;28;20197;-86
2022/12/17 16:49:38;;;;;;;137.90;83.47;;;;;;;;;;5071717;28;20450;-86
2022/12/17 16:52:06;;;;;;;118.30;66.90;;;;;;;;;;5075535;28;20204;-86
2022/12/17 16:54:35;;;;;;;109.03;69.40;;;;;;;;;;5075001;28;20450;-86
2022/12/17 16:57:03;;;;;;;144.60;94.57;;;;;;;;;;5065348;28;20432;-86
2022/12/17 16:59:31;;;;;;;161.87;104.00;;;;;;;;;;5073489;28;20208;-86
2022/12/17 17:02:00;;;;;;;97.63;50.13;;;;;;;;;;5064049;28;20443;-86
2022/12/17 17:04:28;;;;;;;156.07;102.20;;;;;;;;;;5092352;28;20458;-86
2022/12/17 17:06:58;;;;;;;167.33;117.97;;;;;;;;;;5076923;28;20485;-87
2022/12/17 17:09:27;;;;;;;147.00;89.73;;;;;;;;;;5075013;28;20200;-87
2022/12/17 17:11:57;;;;;;;164.87;102.60;;;;;;;;;;5071677;28;20205;-86
2022/12/17 17:14:26;;;;;;;153.50;100.87;;;;;;;;;;5075906;28;20538;-86
2022/12/17 17:16:56;;;;;;;124.37;67.70;;;;;;;;;;5073250;28;20478;-86
2022/12/17 17:19:25;;;;;;;99.73;54.10;;;;;;;;;;5059987;28;20328;-86
2022/12/17 17:21:54;;;;;;;121.60;69.37;;;;;;;;;;5062312;28;20214;-84
2022/12/17 17:24:24;;;;;;;107.90;59.37;;;;;;;;;;5057123;28;20477;-84
2022/12/17 17:26:54;;;;;;;145.30;97.67;;;;;;;;;;5041116;28;20466;-85
2022/12/17 17:29:22;;;;;;;159.30;98.13;;;;;;;;;;5074379;28;21114;-85
2022/12/17 17:31:51;;;;;;;160.10;105.97;;;;;;;;;;5043215;28;20440;-84
2022/12/17 17:34:38;;;;;;;149.77;94.90;;;;;;;;;;5042743;28;20503;-86
2022/12/17 17:37:07;;;;;;;167.40;95.17;;;;;;;;;;5043735;28;20563;-85
2022/12/17 17:39:37;;;;;;;114.40;68.77;;;;;;;;;;5054777;28;20479;-85
2022/12/17 17:42:05;;;;;;;145.37;83.33;;;;;;;;;;5039014;28;20550;-83
2022/12/17 17:44:34;;;;;;;175.00;100.27;;;;;;;;;;5056375;28;20621;-83
2022/12/17 17:47:02;;;;;;;175.40;104.93;;;;;;;;;;5050364;28;20511;-84
2022/12/17 17:49:31;;;;;;;169.23;98.67;;;;;;;;;;5038885;28;20210;-82
2022/12/17 17:51:59;;;;;;;177.37;98.70;;;;;;;;;;5053279;28;20475;-83
2022/12/17 17:54:39;;;;;;;164.43;98.17;;;;;;;;;;5040154;28;20210;-83
2022/12/17 17:57:08;;;;;;;116.07;58.07;;;;;;;;;;5034526;28;20218;-83
2022/12/17 17:59:38;;;;;;;159.07;97.97;;;;;;;;;;5051995;28;20230;-82
2022/12/17 18:02:07;;;;;;;123.10;68.87;;;;;;;;;;5037213;28;20209;-83
2022/12/17 18:04:36;;;;;;;165.00;90.10;;;;;;;;;;5042234;28;20236;-84
2022/12/17 18:07:04;;;;;;;135.03;70.77;;;;;;;;;;5043646;28;20570;-82
2022/12/17 18:09:54;;;;;;;148.97;84.83;;;;;;;;;;5056223;28;20479;-84
2022/12/17 18:15:12;;;;;;;115.60;66.50;;;;;;;;;;5060863;28;20203;-85
2022/12/17 18:17:44;;;;;;;81.53;49.87;;;;;;;;;;5044547;28;20197;-85
2022/12/17 18:20:13;;;;;;;115.43;66.40;;;;;;;;;;5063699;28;20524;-86
2022/12/17 18:22:46;;;;;;;124.87;79.37;;;;;;;;;;5067138;28;20205;-86
2022/12/17 18:25:16;;;;;;;115.17;63.97;;;;;;;;;;5061999;28;20451;-86
2022/12/17 18:27:52;;;;;;;137.90;87.03;;;;;;;;;;5059420;28;20227;-87
2022/12/17 18:30:20;;;;;;;102.77;65.23;;;;;;;;;;5061662;28;20239;-87
2022/12/17 18:32:49;;;;;;;146.17;80.67;;;;;;;;;;5084859;28;20501;-86
2022/12/17 18:35:18;;;;;;;103.27;48.57;;;;;;;;;;5070590;28;20466;-86
2022/12/17 18:37:46;;;;;;;141.30;90.37;;;;;;;;;;5078935;28;20197;-87
2022/12/17 18:40:16;;;;;;;137.20;85.77;;;;;;;;;;5078619;28;20236;-87
2022/12/17 18:45:30;;;;;;;127.50;70.20;;;;;;;;;;5072654;28;20197;-86
2022/12/17 18:47:58;;;;;;;134.87;85.97;;;;;;;;;;5078491;28;20208;-87
2022/12/17 18:50:27;;;;;;;133.70;72.23;;;;;;;;;;5069822;28;20463;-87
2022/12/17 18:52:55;;;;;;;116.60;61.63;;;;;;;;;;5069981;28;20478;-86
2022/12/17 18:55:25;;;;;;;113.47;62.83;;;;;;;;;;5077770;28;20254;-86
2022/12/17 18:57:53;;;;;;;136.87;74.83;;;;;;;;;;5078454;28;20447;-87
2022/12/17 19:00:21;;;;;;;103.33;58.23;;;;;;;;;;5090366;28;20208;-86
2022/12/17 19:02:50;;;;;;;107.33;51.77;;;;;;;;;;5068708;28;20458;-87
2022/12/17 19:05:18;;;;;;;128.07;66.73;;;;;;;;;;5075336;28;20482;-87
2022/12/17 19:07:47;;;;;;;142.37;74.07;;;;;;;;;;5088386;28;20299;-87
2022/12/17 19:10:15;;;;;;;139.20;78.77;;;;;;;;;;5076113;28;20189;-87
2022/12/17 19:12:45;;;;;;;146.87;75.53;;;;;;;;;;5075347;28;20462;-86
2022/12/17 19:15:13;;;;;;;142.87;76.27;;;;;;;;;;5068047;28;20546;-87
2022/12/17 19:17:42;;;;;;;140.93;72.90;;;;;;;;;;5091965;28;20508;-87
2022/12/17 19:20:11;;;;;;;70.27;32.67;;;;;;;;;;5073975;28;20572;-86
2022/12/17 19:22:39;;;;;;;147.00;92.70;;;;;;;;;;5073516;28;20478;-86
2022/12/17 19:25:07;;;;;;;135.10;64.17;;;;;;;;;;5075273;28;20462;-86
2022/12/17 19:27:36;;;;;;;120.20;62.47;;;;;;;;;;5075953;28;20553;-86
2022/12/17 19:30:06;;;;;;;142.57;67.47;;;;;;;;;;5092011;28;20504;-87
2022/12/17 19:32:34;;;;;;;141.57;69.47;;;;;;;;;;5074262;28;20470;-87
2022/12/17 19:35:03;;;;;;;107.23;54.47;;;;;;;;;;5075031;28;20463;-86
2022/12/17 19:37:31;;;;;;;96.57;44.73;;;;;;;;;;5073566;28;20500;-87
2022/12/17 19:39:59;;;;;;;142.87;78.63;;;;;;;;;;5093065;28;20221;-87
2022/12/17 19:42:28;;;;;;;127.13;53.30;;;;;;;;;;5074285;28;20451;-86
2022/12/17 19:45:06;;;;;;;125.63;58.17;;;;;;;;;;5074996;28;20461;-87
2022/12/17 19:47:34;;;;;;;119.43;55.20;;;;;;;;;;5073486;28;20451;-87
2022/12/17 19:50:03;;;;;;;110.10;48.47;;;;;;;;;;5090117;28;20507;-87
2022/12/17 19:52:31;;;;;;;98.13;45.47;;;;;;;;;;5074094;28;20462;-87
2022/12/17 19:55:00;;;;;;;136.70;80.20;;;;;;;;;;5092264;28;20281;-87
2022/12/17 19:57:29;;;;;;;103.20;50.07;;;;;;;;;;5073723;28;20459;-87
2022/12/17 19:59:57;;;;;;;131.93;72.77;;;;;;;;;;5072937;28;20466;-87
2022/12/17 20:02:27;;;;;;;138.37;73.90;;;;;;;;;;5092178;28;20456;-87
2022/12/17 20:05:00;;;;;;;97.40;44.90;;;;;;;;;;5069490;28;20244;-87
2022/12/17 20:07:28;;;;;;;64.97;30.87;;;;;;;;;;5086339;28;20471;-87
2022/12/17 20:09:57;;;;;;;104.63;49.57;;;;;;;;;;5075019;28;20196;-87
2022/12/17 20:12:25;;;;;;;95.03;56.30;;;;;;;;;;5073851;28;20204;-87
2022/12/17 20:14:54;;;;;;;120.40;66.37;;;;;;;;;;5091926;28;20455;-87
2022/12/17 20:17:24;;;;;;;108.33;59.50;;;;;;;;;;5074419;28;20451;-87
2022/12/17 20:19:55;;;;;;;103.70;56.43;;;;;;;;;;5093614;28;20474;-87
2022/12/17 20:22:25;;;;;;;116.43;57.10;;;;;;;;;;5081248;28;20233;-87
2022/12/17 20:24:54;;;;;;;105.13;47.57;;;;;;;;;;5075741;28;20454;-87
2022/12/17 20:27:22;;;;;;;116.07;67.50;;;;;;;;;;5066089;28;20463;-87
2022/12/17 20:29:50;;;;;;;109.20;65.97;;;;;;;;;;5091377;28;20451;-87
2022/12/17 20:32:20;;;;;;;114.73;65.10;;;;;;;;;;5063816;28;20442;-87
2022/12/17 20:34:48;;;;;;;125.67;74.70;;;;;;;;;;5073906;28;20541;-87
2022/12/17 20:37:18;;;;;;;140.60;80.23;;;;;;;;;;5075946;28;20196;-87
2022/12/17 20:39:46;;;;;;;133.50;72.77;;;;;;;;;;5082580;28;20451;-88
2022/12/17 20:42:16;;;;;;;145.47;82.93;;;;;;;;;;5076879;28;20205;-87
2022/12/17 20:44:45;;;;;;;133.70;71.70;;;;;;;;;;5071619;28;20464;-87
2022/12/17 20:47:20;;;;;;;127.57;74.37;;;;;;;;;;5067378;28;20450;-87
2022/12/17 20:49:48;;;;;;;142.40;80.53;;;;;;;;;;5089427;28;20464;-87
2022/12/17 20:52:18;;;;;;;148.47;82.40;;;;;;;;;;5075699;28;20435;-87
2022/12/17 20:54:48;;;;;;;147.27;73.00;;;;;;;;;;5064983;28;20454;-87
2022/12/17 20:57:16;;;;;;;145.83;82.00;;;;;;;;;;5062649;28;20534;-88
2022/12/17 20:59:45;;;;;;;160.63;82.97;;;;;;;;;;5073778;28;20528;-88
2022/12/17 21:02:13;;;;;;;197.27;113.17;;;;;;;;;;5065006;28;20475;-87
2022/12/17 21:04:42;;;;;;;171.73;84.90;;;;;;;;;;5068830;28;20459;-88
2022/12/17 21:07:10;;;;;;;170.83;97.43;;;;;;;;;;5065344;28;20508;-88
2022/12/17 21:09:40;;;;;;;156.00;81.43;;;;;;;;;;5076985;28;20439;-88
2022/12/17 21:12:11;;;;;;;155.50;82.97;;;;;;;;;;5075061;28;20478;-88
2022/12/17 21:14:39;;;;;;;152.60;84.47;;;;;;;;;;5074501;28;20459;-88
2022/12/17 21:17:07;;;;;;;118.67;69.73;;;;;;;;;;5073787;28;20443;-88
2022/12/17 21:19:36;;;;;;;143.73;72.33;;;;;;;;;;5067302;28;20486;-88
2022/12/17 21:22:05;;;;;;;144.67;69.67;;;;;;;;;;5071734;28;20474;-88
2022/12/17 21:24:36;;;;;;;163.90;77.00;;;;;;;;;;5074758;28;20459;-88
2022/12/17 21:27:05;;;;;;;148.23;69.17;;;;;;;;;;5061209;28;20458;-87
2022/12/17 21:29:41;;;;;;;149.37;81.00;;;;;;;;;;5084132;28;20464;-88
2022/12/17 21:32:10;;;;;;;162.13;91.30;;;;;;;;;;5073901;28;20528;-87
2022/12/17 21:34:38;;;;;;;120.63;55.73;;;;;;;;;;5075127;28;20439;-88
2022/12/17 21:37:07;;;;;;;86.37;38.67;;;;;;;;;;5093185;28;20451;-88
2022/12/17 21:39:36;;;;;;;121.77;65.33;;;;;;;;;;5075793;28;20443;-88
2022/12/17 21:44:52;;;;;;;159.40;79.67;;;;;;;;;;5073909;28;20465;-88
2022/12/17 21:47:21;;;;;;;178.73;100.57;;;;;;;;;;5082044;28;20462;-88
2022/12/17 21:49:49;;;;;;;165.27;87.20;;;;;;;;;;5072134;28;20189;-87
2022/12/17 21:52:17;;;;;;;142.70;82.37;;;;;;;;;;5093463;28;20442;-88
2022/12/17 21:54:46;;;;;;;164.10;86.53;;;;;;;;;;5074580;28;20544;-87
2022/12/17 21:57:16;;;;;;;166.37;73.37;;;;;;;;;;5075991;28;20447;-87
2022/12/17 21:59:44;;;;;;;156.00;72.30;;;;;;;;;;5068131;28;20520;-87
2022/12/17 22:02:13;;;;;;;165.07;76.43;;;;;;;;;;5088761;28;20482;-87
2022/12/17 22:04:41;;;;;;;144.43;75.00;;;;;;;;;;5089108;28;20467;-87
2022/12/17 22:07:10;;;;;;;180.47;89.50;;;;;;;;;;5072806;28;20532;-87
2022/12/17 22:09:43;;;;;;;169.07;91.53;;;;;;;;;;5097104;28;20492;-88
2022/12/17 22:15:19;;;;;;;150.10;70.07;;;;;;;;;;5095394;28;20529;-87
2022/12/17 22:17:48;;;;;;;146.37;75.07;;;;;;;;;;5078446;28;20544;-87
2022/12/17 22:20:17;;;;;;;122.13;59.17;;;;;;;;;;5097194;28;20577;-87
2022/12/17 22:22:45;;;;;;;153.17;79.03;;;;;;;;;;5070028;28;20476;-87
2022/12/17 22:25:14;;;;;;;165.90;91.27;;;;;;;;;;5091947;28;20449;-87
2022/12/17 22:27:44;;;;;;;147.70;69.77;;;;;;;;;;5081413;28;20501;-87
2022/12/17 22:33:01;;;;;;;139.80;64.77;;;;;;;;;;5091742;28;20474;-87
2022/12/17 22:35:41;;;;;;;136.53;63.70;;;;;;;;;;5077479;28;20454;-87
2022/12/17 22:38:31;;;;;;;144.80;73.67;;;;;;;;;;5095089;28;20496;-87
2022/12/17 22:44:23;;;;;;;92.27;47.80;;;;;;;;;;5090440;28;20462;-87
2022/12/17 22:47:11;;;;;;;154.90;69.17;;;;;;;;;;5067628;28;20473;-86
2022/12/17 22:49:40;;;;;;;186.37;78.40;;;;;;;;;;5065220;28;20450;-87
2022/12/17 22:52:11;;;;;;;221.77;96.53;;;;;;;;;;5075595;28;20451;-86
2022/12/17 22:54:39;;;;;;;195.43;85.60;;;;;;;;;;5078248;28;20458;-87
2022/12/17 22:57:08;;;;;;;194.27;86.07;;;;;;;;;;5095782;28;20439;-86
2022/12/17 22:59:58;;;;;;;161.60;70.27;;;;;;;;;;5077468;28;20478;-86
2022/12/17 23:02:26;;;;;;;131.20;62.17;;;;;;;;;;5072641;28;20498;-86
2022/12/17 23:04:55;;;;;;;189.87;97.50;;;;;;;;;;5095303;28;20532;-86
2022/12/17 23:07:23;;;;;;;158.83;75.70;;;;;;;;;;5078257;28;20454;-86
2022/12/17 23:09:58;;;;;;;135.43;65.67;;;;;;;;;;5095299;28;20450;-86
2022/12/17 23:15:14;;;;;;;140.53;70.60;;;;;;;;;;5078049;28;20544;-86
2022/12/17 23:17:43;;;;;;;147.60;67.27;;;;;;;;;;5095161;28;20450;-86
2022/12/17 23:20:11;;;;;;;149.17;95.60;;;;;;;;;;5075617;28;20521;-86
2022/12/17 23:22:40;;;;;;;116.30;57.17;;;;;;;;;;5069843;28;20471;-86
2022/12/17 23:25:08;;;;;;;141.70;64.40;;;;;;;;;;5072409;28;20533;-86
2022/12/17 23:27:37;;;;;;;154.07;78.93;;;;;;;;;;5066287;28;20496;-86
2022/12/17 23:30:08;;;;;;;173.70;87.70;;;;;;;;;;5085267;28;20460;-86
2022/12/17 23:32:38;;;;;;;145.10;79.83;;;;;;;;;;5068253;28;20538;-86
2022/12/17 23:35:07;;;;;;;147.73;78.43;;;;;;;;;;5092345;28;20470;-86
2022/12/17 23:37:38;;;;;;;181.33;92.30;;;;;;;;;;5094860;28;20456;-86
2022/12/17 23:40:08;;;;;;;200.47;91.50;;;;;;;;;;5089330;28;20538;-86
2022/12/17 23:42:36;;;;;;;144.73;64.13;;;;;;;;;;5068789;28;20474;-86
2022/12/17 23:45:05;;;;;;;155.63;66.80;;;;;;;;;;5075797;28;20458;-86
2022/12/17 23:47:34;;;;;;;149.43;63.07;;;;;;;;;;5076716;28;20451;-86
2022/12/17 23:50:03;;;;;;;151.07;61.80;;;;;;;;;;5076299;28;20454;-86
2022/12/17 23:52:32;;;;;;;120.00;50.47;;;;;;;;;;5086420;28;20512;-86
2022/12/17 23:55:00;;;;;;;177.43;83.83;;;;;;;;;;5077941;28;20530;-86
2022/12/17 23:57:29;;;;;;;175.27;80.83;;;;;;;;;;5076223;28;20504;-86
2022/12/17 23:59:57;;;;;;;185.17;96.60;;;;;;;;;;5081538;28;20451;-86
